Time;durP1;ratioP1;P1;durP2;ratioP2;P2;SDS_P1;SDS_P2;PMS_P1;PMS_P2;Temp;Humidity;BMP_temperature;BMP_pressure;BME280_temperature;BME280_humidity;BME280_pressure;Samples;Min_cycle;Max_cycle;Signal;HPM_P1;HPM_P2
2024/01/22 00:00:16;;;;;;;9.27;5.07;;;7.60;94.60;;;;;;766549;187;26490;-79
2024/01/22 00:02:42;;;;;;;10.07;4.67;;;7.60;94.60;;;;;;769278;186;26479;-78
2024/01/22 00:05:10;;;;;;;13.43;5.33;;;7.60;94.50;;;;;;767719;188;26507;-80
2024/01/22 00:07:36;;;;;;;8.93;4.53;;;7.60;94.50;;;;;;766901;186;26491;-78
2024/01/22 00:10:02;;;;;;;10.53;4.97;;;7.70;94.70;;;;;;771452;186;26538;-80
2024/01/22 00:12:30;;;;;;;8.63;4.57;;;7.60;94.70;;;;;;763092;187;26516;-79
2024/01/22 00:14:55;;;;;;;9.10;4.77;;;7.70;94.60;;;;;;769415;183;26508;-79
2024/01/22 00:17:22;;;;;;;6.57;4.07;;;7.80;94.60;;;;;;770343;186;26507;-80
2024/01/22 00:19:49;;;;;;;7.13;4.60;;;7.80;94.40;;;;;;764897;186;26409;-79
2024/01/22 00:22:15;;;;;;;11.17;4.60;;;7.80;94.40;;;;;;766679;187;26502;-78
2024/01/22 00:24:42;;;;;;;7.83;4.60;;;7.80;94.50;;;;;;756606;190;26510;-79
2024/01/22 00:27:09;;;;;;;8.90;4.80;;;7.80;94.70;;;;;;757063;187;26511;-78
2024/01/22 00:29:35;;;;;;;8.63;4.73;;;7.90;94.50;;;;;;769371;186;26406;-77
2024/01/22 00:32:03;;;;;;;9.20;5.10;;;7.90;94.50;;;;;;765576;186;26438;-78
2024/01/22 00:34:29;;;;;;;8.13;3.80;;;7.90;94.50;;;;;;757445;190;26523;-79
2024/01/22 00:36:55;;;;;;;8.27;5.07;;;7.90;94.50;;;;;;763531;186;26413;-79
2024/01/22 00:39:22;;;;;;;9.90;4.50;;;7.90;94.40;;;;;;769054;185;26472;-79
2024/01/22 00:41:48;;;;;;;9.27;4.57;;;7.80;94.50;;;;;;770343;187;26514;-79
2024/01/22 00:44:15;;;;;;;8.60;4.70;;;7.80;94.60;;;;;;768810;187;26510;-79
2024/01/22 00:46:42;;;;;;;7.07;4.57;;;7.80;94.70;;;;;;757001;185;26510;-78
2024/01/22 00:49:08;;;;;;;10.57;4.83;;;7.80;94.80;;;;;;770278;185;27084;-78
2024/01/22 00:51:35;;;;;;;9.43;4.80;;;7.90;94.80;;;;;;767318;186;26569;-78
2024/01/22 00:54:01;;;;;;;11.00;4.47;;;8.00;94.50;;;;;;763703;186;26487;-79
2024/01/22 00:56:28;;;;;;;8.00;4.50;;;8.00;94.50;;;;;;771129;187;26478;-80
2024/01/22 00:58:56;;;;;;;9.13;4.50;;;8.00;94.60;;;;;;770371;187;26543;-78
2024/01/22 01:01:21;;;;;;;7.67;3.90;;;8.00;94.60;;;;;;769261;187;26509;-78
2024/01/22 01:03:48;;;;;;;9.00;4.00;;;8.00;94.60;;;;;;766089;186;26447;-79
2024/01/22 01:06:14;;;;;;;8.90;5.13;;;8.10;94.70;;;;;;763166;185;27833;-80
2024/01/22 01:08:41;;;;;;;7.20;4.73;;;8.10;94.70;;;;;;771596;186;26474;-78
2024/01/22 01:11:08;;;;;;;7.37;3.90;;;8.10;94.70;;;;;;771084;187;26505;-79
2024/01/22 01:13:34;;;;;;;8.07;3.97;;;8.30;94.80;;;;;;769296;186;26413;-79
2024/01/22 01:16:01;;;;;;;6.23;3.60;;;8.40;94.60;;;;;;761192;187;26497;-78
2024/01/22 01:18:27;;;;;;;7.53;4.07;;;8.50;94.40;;;;;;767859;187;26414;-79
2024/01/22 01:20:54;;;;;;;5.63;3.23;;;8.60;94.30;;;;;;765330;187;26520;-78
2024/01/22 01:23:20;;;;;;;5.30;2.80;;;8.60;94.10;;;;;;765437;186;26512;-78
2024/01/22 01:25:47;;;;;;;8.43;3.10;;;8.70;94.00;;;;;;763234;187;26537;-76
2024/01/22 01:28:14;;;;;;;6.97;3.37;;;8.80;93.80;;;;;;756107;190;26509;-79
2024/01/22 01:30:40;;;;;;;4.60;3.20;;;8.70;93.80;;;;;;763089;186;26410;-78
2024/01/22 01:33:07;;;;;;;9.10;4.10;;;8.90;93.80;;;;;;762836;187;26508;-78
2024/01/22 01:35:33;;;;;;;5.00;2.77;;;8.90;93.50;;;;;;768042;183;26502;-78
2024/01/22 01:38:00;;;;;;;8.07;2.77;;;8.90;93.60;;;;;;766564;186;26510;-78
2024/01/22 01:40:27;;;;;;;6.77;3.23;;;8.90;93.60;;;;;;767847;186;26662;-78
2024/01/22 01:42:53;;;;;;;15.97;7.10;;;8.90;93.50;;;;;;765908;186;26518;-79
2024/01/22 01:45:20;;;;;;;7.60;3.87;;;8.90;93.50;;;;;;767946;186;26433;-77
2024/01/22 01:47:47;;;;;;;8.63;3.57;;;8.90;93.60;;;;;;765990;186;26409;-78
2024/01/22 01:50:15;;;;;;;11.47;5.27;;;9.00;93.50;;;;;;767152;187;26534;-79
2024/01/22 01:52:41;;;;;;;53.80;15.60;;;9.00;93.50;;;;;;763935;186;26426;-78
2024/01/22 01:55:08;;;;;;;7.00;3.80;;;8.90;93.60;;;;;;766634;187;27056;-80
2024/01/22 01:57:35;;;;;;;3.97;2.50;;;9.00;93.60;;;;;;768438;184;26403;-78
2024/01/22 02:00:04;;;;;;;6.50;3.00;;;9.10;93.50;;;;;;774302;186;26482;-78
2024/01/22 02:02:28;;;;;;;4.27;2.83;;;9.10;93.40;;;;;;768302;186;26522;-79
2024/01/22 02:04:54;;;;;;;4.83;3.07;;;9.10;93.30;;;;;;766791;186;26417;-78
2024/01/22 02:07:21;;;;;;;6.73;3.23;;;9.10;93.40;;;;;;766887;186;26386;-78
2024/01/22 02:09:48;;;;;;;9.27;2.40;;;9.00;93.30;;;;;;764066;186;26406;-77
2024/01/22 02:12:15;;;;;;;4.13;3.10;;;9.10;93.40;;;;;;746698;187;26477;-79
2024/01/22 02:14:42;;;;;;;8.97;3.10;;;9.00;93.40;;;;;;767074;186;26451;-77
2024/01/22 02:17:08;;;;;;;5.20;2.60;;;9.00;93.60;;;;;;766636;187;26491;-78
2024/01/22 02:19:35;;;;;;;8.73;4.77;;;9.00;93.30;;;;;;769068;187;26483;-78
2024/01/22 02:22:02;;;;;;;8.47;3.70;;;9.00;93.30;;;;;;766668;186;26510;-77
2024/01/22 02:24:28;;;;;;;40.53;14.53;;;9.00;93.30;;;;;;768825;186;26556;-78
2024/01/22 02:26:55;;;;;;;7.40;3.60;;;9.00;93.40;;;;;;763496;186;26413;-78
2024/01/22 02:29:21;;;;;;;6.20;3.60;;;9.00;93.40;;;;;;762537;187;26500;-79
2024/01/22 02:31:49;;;;;;;8.67;5.13;;;8.90;93.40;;;;;;762478;187;26574;-78
2024/01/22 02:34:15;;;;;;;4.03;2.93;;;8.90;93.50;;;;;;765920;186;26451;-78
2024/01/22 02:36:41;;;;;;;5.77;3.63;;;8.90;93.50;;;;;;764506;187;27085;-79
2024/01/22 02:39:08;;;;;;;5.70;4.00;;;8.90;93.50;;;;;;762879;187;26389;-80
2024/01/22 02:41:34;;;;;;;10.37;4.30;;;9.10;93.40;;;;;;760923;183;26509;-79
2024/01/22 02:44:01;;;;;;;5.93;3.27;;;9.00;93.40;;;;;;765612;186;26498;-79
2024/01/22 02:46:29;;;;;;;9.30;3.17;;;9.10;93.50;;;;;;766614;182;26394;-79
2024/01/22 02:48:54;;;;;;;6.63;3.30;;;9.20;93.30;;;;;;764703;185;26524;-79
2024/01/22 02:51:21;;;;;;;9.30;3.73;;;9.30;93.30;;;;;;765013;186;27252;-79
2024/01/22 02:53:47;;;;;;;7.40;3.50;;;9.30;93.40;;;;;;764260;188;26558;-77
2024/01/22 02:56:18;;;;;;;6.20;3.27;;;9.30;93.20;;;;;;764423;188;26524;-77
2024/01/22 02:58:44;;;;;;;3.57;3.27;;;9.30;93.30;;;;;;770512;186;27050;-79
2024/01/22 03:01:11;;;;;;;5.43;3.30;;;9.30;93.40;;;;;;763749;186;26564;-78
2024/01/22 03:03:37;;;;;;;3.13;2.57;;;9.20;93.50;;;;;;766920;186;27061;-78
2024/01/22 03:06:04;;;;;;;4.20;3.03;;;9.30;93.70;;;;;;764566;186;26513;-78
2024/01/22 03:08:31;;;;;;;8.33;3.30;;;9.40;93.60;;;;;;763013;186;26995;-78
2024/01/22 03:10:57;;;;;;;7.67;3.17;;;9.50;93.40;;;;;;766911;186;26629;-77
2024/01/22 03:13:24;;;;;;;4.93;3.13;;;9.50;93.40;;;;;;765018;187;26553;-78
2024/01/22 03:15:51;;;;;;;5.40;2.90;;;9.50;93.40;;;;;;763135;187;26941;-77
2024/01/22 03:18:17;;;;;;;4.17;2.70;;;9.50;93.60;;;;;;756391;189;26577;-78
2024/01/22 03:20:44;;;;;;;3.40;2.77;;;9.50;93.40;;;;;;767819;186;26532;-78
2024/01/22 03:23:10;;;;;;;5.33;2.90;;;9.50;93.50;;;;;;763559;186;26434;-77
2024/01/22 03:25:37;;;;;;;4.03;2.63;;;9.50;93.50;;;;;;763761;187;26560;-76
2024/01/22 03:28:04;;;;;;;4.03;2.77;;;9.50;93.60;;;;;;764885;186;26582;-77
2024/01/22 03:30:30;;;;;;;7.40;2.80;;;9.60;93.60;;;;;;761142;187;26589;-78
2024/01/22 03:32:57;;;;;;;7.80;2.43;;;9.60;93.40;;;;;;768107;186;27127;-78
2024/01/22 03:35:24;;;;;;;2.53;1.90;;;9.60;93.40;;;;;;762775;187;26476;-78
2024/01/22 03:37:50;;;;;;;7.03;2.60;;;9.60;93.40;;;;;;769972;184;27116;-78
2024/01/22 03:40:17;;;;;;;3.97;2.87;;;9.70;93.30;;;;;;769307;184;26557;-78
2024/01/22 03:42:43;;;;;;;4.43;2.43;;;9.70;93.20;;;;;;767585;186;26545;-78
2024/01/22 03:45:10;;;;;;;5.33;2.80;;;9.70;93.20;;;;;;766864;186;26573;-78
2024/01/22 03:47:37;;;;;;;4.60;2.50;;;9.70;93.20;;;;;;764255;188;27071;-77
2024/01/22 03:50:04;;;;;;;4.80;2.57;;;9.70;93.10;;;;;;764596;186;26471;-78
2024/01/22 03:52:30;;;;;;;5.23;2.20;;;9.60;93.10;;;;;;769124;186;28132;-77
2024/01/22 03:54:57;;;;;;;5.70;2.70;;;9.60;93.20;;;;;;764816;186;26547;-77
2024/01/22 03:57:23;;;;;;;5.27;2.50;;;9.70;93.20;;;;;;763733;186;26446;-78
2024/01/22 03:59:50;;;;;;;3.50;2.30;;;9.70;93.10;;;;;;765044;186;26437;-77
2024/01/22 04:02:16;;;;;;;5.37;2.47;;;9.70;93.00;;;;;;764671;183;26566;-77
2024/01/22 04:04:43;;;;;;;2.10;1.90;;;9.70;93.10;;;;;;770453;183;26506;-77
2024/01/22 04:07:09;;;;;;;2.20;2.00;;;9.70;93.30;;;;;;762377;186;26426;-78
2024/01/22 04:09:36;;;;;;;3.17;2.30;;;9.70;93.20;;;;;;761214;183;26529;-78
2024/01/22 04:12:03;;;;;;;1.97;1.83;;;9.80;93.20;;;;;;764236;186;26454;-79
2024/01/22 04:14:29;;;;;;;3.40;2.00;;;9.80;93.20;;;;;;763898;186;26429;-78
2024/01/22 04:16:56;;;;;;;3.60;2.20;;;9.80;93.20;;;;;;763797;187;26501;-78
2024/01/22 04:19:22;;;;;;;2.97;2.10;;;9.80;93.20;;;;;;764310;186;26562;-78
2024/01/22 04:21:49;;;;;;;3.70;2.37;;;9.90;93.30;;;;;;764699;185;26529;-78
2024/01/22 04:24:16;;;;;;;4.60;2.53;;;9.80;93.70;;;;;;774188;185;26492;-77
2024/01/22 04:26:42;;;;;;;2.57;2.00;;;9.70;94.90;;;;;;774069;186;26523;-78
2024/01/22 04:29:09;;;;;;;2.50;2.30;;;9.50;95.90;;;;;;768761;186;26519;-79
2024/01/22 04:31:37;;;;;;;2.93;2.27;;;9.40;96.40;;;;;;769731;186;26544;-78
2024/01/22 04:34:03;;;;;;;2.77;2.37;;;9.20;97.10;;;;;;764205;186;26414;-77
2024/01/22 04:36:29;;;;;;;3.07;2.03;;;9.20;97.40;;;;;;757448;189;27168;-78
2024/01/22 04:38:56;;;;;;;3.77;2.27;;;9.20;97.70;;;;;;764543;186;26417;-78
2024/01/22 04:41:23;;;;;;;5.90;2.30;;;9.20;97.90;;;;;;773855;186;27055;-78
2024/01/22 04:43:49;;;;;;;4.57;2.50;;;9.20;98.10;;;;;;773949;186;26499;-77
2024/01/22 04:46:16;;;;;;;5.83;2.33;;;9.10;98.30;;;;;;767651;186;26417;-77
2024/01/22 04:48:43;;;;;;;2.37;2.17;;;9.10;98.40;;;;;;764812;187;26530;-78
2024/01/22 04:51:09;;;;;;;6.13;2.60;;;9.10;98.50;;;;;;764275;186;26485;-78
2024/01/22 04:53:36;;;;;;;4.33;2.47;;;9.10;98.50;;;;;;765648;187;26504;-77
2024/01/22 04:56:02;;;;;;;5.43;2.40;;;9.10;98.60;;;;;;770403;187;26501;-78
2024/01/22 04:58:29;;;;;;;3.43;2.10;;;9.20;98.60;;;;;;769699;186;26508;-78
2024/01/22 05:00:56;;;;;;;2.60;2.10;;;9.20;98.60;;;;;;765459;186;26495;-79
2024/01/22 05:03:23;;;;;;;3.70;2.40;;;9.30;98.30;;;;;;769344;186;26501;-79
2024/01/22 05:05:49;;;;;;;4.23;2.37;;;9.30;98.40;;;;;;764840;187;26494;-78
2024/01/22 05:08:15;;;;;;;4.87;2.30;;;9.40;98.20;;;;;;766197;186;26455;-80
2024/01/22 05:10:42;;;;;;;5.27;3.00;;;9.30;98.30;;;;;;764852;187;26520;-80
2024/01/22 05:13:09;;;;;;;3.27;2.57;;;9.20;98.90;;;;;;769109;186;26414;-77
2024/01/22 05:15:35;;;;;;;5.23;2.40;;;9.10;99.10;;;;;;767558;183;27104;-79
2024/01/22 05:18:02;;;;;;;3.80;2.70;;;9.10;99.10;;;;;;767931;186;26519;-79
2024/01/22 05:20:28;;;;;;;4.13;2.30;;;9.20;99.00;;;;;;766562;187;27092;-79
2024/01/22 05:22:55;;;;;;;7.03;2.40;;;9.20;99.10;;;;;;768308;186;26462;-78
2024/01/22 05:25:21;;;;;;;5.90;2.40;;;9.30;99.00;;;;;;769928;186;26500;-80
2024/01/22 05:27:48;;;;;;;3.27;2.50;;;9.30;98.80;;;;;;768665;186;26516;-79
2024/01/22 05:30:15;;;;;;;4.33;2.17;;;9.30;98.70;;;;;;766184;186;26560;-79
2024/01/22 05:32:41;;;;;;;4.77;2.40;;;9.30;98.80;;;;;;768092;184;27065;-80
2024/01/22 05:35:08;;;;;;;3.43;2.00;;;9.40;98.50;;;;;;768388;185;26435;-78
2024/01/22 05:37:35;;;;;;;3.77;1.93;;;9.60;98.20;;;;;;767093;186;26509;-80
2024/01/22 05:40:01;;;;;;;4.57;2.00;;;9.60;98.10;;;;;;767227;186;26528;-79
2024/01/22 05:42:28;;;;;;;9.00;1.93;;;9.60;97.90;;;;;;770420;186;26532;-79
2024/01/22 05:44:54;;;;;;;2.73;2.00;;;9.70;97.70;;;;;;766437;186;26427;-79
2024/01/22 05:47:21;;;;;;;3.33;2.10;;;9.70;97.90;;;;;;770382;186;26468;-78
2024/01/22 05:49:48;;;;;;;2.67;1.70;;;9.70;98.00;;;;;;764780;186;26424;-79
2024/01/22 05:52:14;;;;;;;4.00;1.67;;;9.80;97.70;;;;;;764954;186;27002;-79
2024/01/22 05:54:41;;;;;;;8.93;2.00;;;10.00;96.50;;;;;;764868;187;26512;-79
2024/01/22 05:57:09;;;;;;;2.43;1.60;;;9.90;97.30;;;;;;770659;186;26499;-79
2024/01/22 05:59:34;;;;;;;3.23;1.97;;;10.00;96.50;;;;;;764707;186;26463;-79
2024/01/22 06:02:01;;;;;;;2.03;1.60;;;10.20;96.10;;;;;;768821;187;26491;-80
2024/01/22 06:04:27;;;;;;;3.13;2.07;;;10.30;95.70;;;;;;767947;185;26491;-80
2024/01/22 06:06:54;;;;;;;2.80;1.73;;;10.30;95.90;;;;;;767054;183;26498;-79
2024/01/22 06:09:20;;;;;;;2.40;1.60;;;10.30;95.90;;;;;;767068;187;27079;-80
2024/01/22 06:11:47;;;;;;;2.70;1.60;;;10.20;95.70;;;;;;767636;186;26660;-79
2024/01/22 06:14:14;;;;;;;1.50;1.40;;;10.40;95.20;;;;;;768006;186;26522;-79
2024/01/22 06:16:40;;;;;;;2.23;1.50;;;10.60;94.80;;;;;;763113;186;26427;-78
2024/01/22 06:19:07;;;;;;;1.53;1.33;;;10.50;95.20;;;;;;764599;187;26526;-76
2024/01/22 06:21:33;;;;;;;1.90;1.60;;;10.60;94.80;;;;;;767603;186;27067;-79
2024/01/22 06:24:00;;;;;;;2.20;1.90;;;10.60;94.80;;;;;;768008;186;27075;-79
2024/01/22 06:26:29;;;;;;;3.60;1.50;;;10.70;94.80;;;;;;755207;189;26596;-78
2024/01/22 06:28:56;;;;;;;5.37;2.47;;;10.70;94.40;;;;;;761476;186;26431;-79
2024/01/22 06:31:20;;;;;;;4.57;2.40;;;10.80;94.20;;;;;;759521;187;27067;-76
2024/01/22 06:33:47;;;;;;;2.37;1.77;;;10.90;94.10;;;;;;764479;186;26501;-79
2024/01/22 06:36:13;;;;;;;2.37;1.60;;;10.90;94.00;;;;;;766963;186;26493;-78
2024/01/22 06:38:41;;;;;;;2.63;2.03;;;10.90;94.20;;;;;;766693;186;27090;-78
2024/01/22 06:41:11;;;;;;;3.93;1.50;;;10.80;94.40;;;;;;761772;186;26981;-80
2024/01/22 06:43:38;;;;;;;1.77;1.50;;;11.00;94.10;;;;;;766316;185;26451;-79
2024/01/22 06:46:04;;;;;;;1.53;1.43;;;11.00;94.00;;;;;;769041;186;26544;-78
2024/01/22 06:48:31;;;;;;;1.47;1.30;;;11.00;94.00;;;;;;769304;186;26461;-77
2024/01/22 06:50:57;;;;;;;2.33;1.60;;;11.20;93.60;;;;;;766512;186;26530;-79
2024/01/22 06:53:24;;;;;;;2.83;1.60;;;11.10;93.50;;;;;;767185;186;26528;-79
2024/01/22 06:55:51;;;;;;;2.90;1.50;;;11.20;93.40;;;;;;763571;188;26434;-76
2024/01/22 06:58:17;;;;;;;3.33;1.10;;;11.10;93.70;;;;;;756468;190;26580;-78
2024/01/22 07:00:44;;;;;;;1.50;1.23;;;11.30;93.20;;;;;;761871;186;26453;-74
2024/01/22 07:03:12;;;;;;;2.37;1.60;;;11.30;93.00;;;;;;768386;186;26470;-78
2024/01/22 07:05:37;;;;;;;3.03;1.73;;;11.40;93.00;;;;;;755459;190;26549;-78
2024/01/22 07:08:04;;;;;;;1.43;1.30;;;11.30;93.20;;;;;;761193;189;26418;-78
2024/01/22 07:10:31;;;;;;;1.53;1.43;;;11.30;93.10;;;;;;756587;189;26625;-79
2024/01/22 07:12:57;;;;;;;3.30;1.40;;;11.40;92.80;;;;;;766223;186;26430;-76
2024/01/22 07:15:24;;;;;;;2.67;1.50;;;11.50;92.60;;;;;;765270;186;26414;-79
2024/01/22 07:17:51;;;;;;;1.73;1.53;;;11.60;92.60;;;;;;756495;187;26517;-79
2024/01/22 07:20:17;;;;;;;2.03;1.60;;;11.60;92.50;;;;;;769023;183;26525;-79
2024/01/22 07:22:44;;;;;;;2.23;1.70;;;11.60;92.30;;;;;;764786;186;26986;-77
2024/01/22 07:25:11;;;;;;;1.50;1.40;;;11.60;92.40;;;;;;764143;187;26514;-78
2024/01/22 07:27:39;;;;;;;2.00;1.80;;;11.60;92.30;;;;;;763324;185;26564;-75
2024/01/22 07:30:08;;;;;;;3.03;1.30;;;11.70;92.30;;;;;;763145;187;27145;-78
2024/01/22 07:32:34;;;;;;;1.30;1.20;;;11.60;92.10;;;;;;768749;184;27087;-79
2024/01/22 07:34:59;;;;;;;1.30;1.20;;;11.70;92.20;;;;;;768940;186;26538;-79
2024/01/22 07:37:26;;;;;;;2.20;1.40;;;11.60;92.10;;;;;;769256;187;26512;-78
2024/01/22 07:39:53;;;;;;;1.40;1.30;;;11.60;92.40;;;;;;764440;186;27042;-79
2024/01/22 07:42:20;;;;;;;1.57;1.47;;;11.60;92.30;;;;;;771842;186;26526;-77
2024/01/22 07:44:47;;;;;;;3.13;1.70;;;11.70;92.20;;;;;;771738;186;26491;-78
2024/01/22 07:47:13;;;;;;;1.57;1.47;;;11.70;91.90;;;;;;771614;184;27062;-77
2024/01/22 07:49:40;;;;;;;2.73;1.60;;;11.70;92.00;;;;;;764741;186;26966;-78
2024/01/22 07:52:06;;;;;;;1.30;1.20;;;11.60;92.70;;;;;;768321;175;26483;-80
2024/01/22 07:54:33;;;;;;;2.23;1.50;;;11.70;92.00;;;;;;769845;175;26524;-79
2024/01/22 07:57:00;;;;;;;1.57;1.47;;;11.80;91.90;;;;;;766731;183;26568;-78
2024/01/22 07:59:27;;;;;;;1.23;1.20;;;11.80;91.80;;;;;;767704;185;27048;-75
2024/01/22 08:01:53;;;;;;;2.20;1.40;;;11.80;91.70;;;;;;767062;183;27108;-78
2024/01/22 08:04:20;;;;;;;1.83;1.43;;;11.70;91.90;;;;;;766219;186;26506;-78
2024/01/22 08:06:46;;;;;;;2.77;1.40;;;11.70;92.10;;;;;;765889;186;26544;-78
2024/01/22 08:09:13;;;;;;;2.47;1.77;;;11.70;92.00;;;;;;768274;186;26505;-78
2024/01/22 08:11:41;;;;;;;1.50;1.40;;;11.70;92.00;;;;;;764147;186;27003;-79
2024/01/22 08:14:06;;;;;;;1.47;1.30;;;11.70;91.90;;;;;;764359;186;26426;-78
2024/01/22 08:16:33;;;;;;;1.67;1.40;;;11.70;92.00;;;;;;766490;187;26524;-76
2024/01/22 08:19:00;;;;;;;2.53;1.33;;;11.60;92.20;;;;;;766309;186;27049;-77
2024/01/22 08:21:26;;;;;;;2.93;1.30;;;11.70;92.10;;;;;;766006;186;27075;-76
2024/01/22 08:23:53;;;;;;;2.83;1.30;;;11.60;92.10;;;;;;764724;186;27009;-77
2024/01/22 08:26:19;;;;;;;1.30;1.20;;;11.60;92.40;;;;;;763767;186;26541;-78
2024/01/22 08:28:46;;;;;;;2.03;1.40;;;11.70;91.90;;;;;;764118;186;26480;-77
2024/01/22 08:31:13;;;;;;;3.37;1.43;;;11.70;91.90;;;;;;767629;187;26507;-78
2024/01/22 08:33:39;;;;;;;3.17;1.60;;;11.70;92.00;;;;;;768507;187;26508;-76
2024/01/22 08:36:06;;;;;;;3.20;1.53;;;11.70;92.30;;;;;;762696;187;27548;-78
2024/01/22 08:38:33;;;;;;;3.47;2.20;;;11.70;92.30;;;;;;755044;190;26584;-78
2024/01/22 08:40:59;;;;;;;2.47;1.30;;;11.60;92.30;;;;;;760730;188;26459;-77
2024/01/22 08:43:26;;;;;;;1.70;1.50;;;11.70;92.10;;;;;;760760;187;26586;-74
2024/01/22 08:45:53;;;;;;;3.87;1.43;;;11.60;92.20;;;;;;754405;190;26569;-77
2024/01/22 08:48:19;;;;;;;3.07;1.70;;;11.60;92.30;;;;;;766061;186;26437;-78
2024/01/22 08:50:46;;;;;;;3.67;2.00;;;11.70;92.20;;;;;;763748;188;26520;-79
2024/01/22 08:53:13;;;;;;;1.80;1.57;;;11.60;92.30;;;;;;769423;186;26500;-78
2024/01/22 08:55:39;;;;;;;1.70;1.60;;;11.70;92.20;;;;;;768272;186;26495;-79
2024/01/22 08:58:06;;;;;;;2.80;1.93;;;11.70;92.00;;;;;;764899;186;26450;-78
2024/01/22 09:00:33;;;;;;;5.07;1.70;;;11.70;92.10;;;;;;762919;186;26989;-77
2024/01/22 09:02:59;;;;;;;3.30;1.57;;;11.70;92.00;;;;;;765009;187;26511;-78
2024/01/22 09:05:26;;;;;;;3.83;1.97;;;11.70;92.30;;;;;;767097;186;26544;-78
2024/01/22 09:07:52;;;;;;;3.03;1.60;;;11.70;91.90;;;;;;768571;184;28026;-77
2024/01/22 09:10:19;;;;;;;6.50;1.93;;;11.80;91.60;;;;;;769801;176;26513;-76
2024/01/22 09:12:48;;;;;;;3.17;1.93;;;11.90;91.60;;;;;;780435;183;26494;-77
2024/01/22 09:15:12;;;;;;;2.63;1.80;;;11.90;91.50;;;;;;778345;183;26482;-77
2024/01/22 09:17:39;;;;;;;3.40;2.10;;;11.90;91.30;;;;;;776972;181;27031;-77
2024/01/22 09:20:06;;;;;;;5.30;1.70;;;11.90;91.30;;;;;;788816;177;26452;-77
2024/01/22 09:22:33;;;;;;;4.27;3.17;;;11.90;91.30;;;;;;791283;180;26487;-76
2024/01/22 09:24:59;;;;;;;7.77;2.63;;;12.00;91.20;;;;;;791730;180;26447;-76
2024/01/22 09:27:26;;;;;;;5.97;2.00;;;12.00;90.90;;;;;;790548;178;26448;-77
2024/01/22 09:29:53;;;;;;;5.50;2.27;;;12.10;90.90;;;;;;791595;180;26476;-78
2024/01/22 09:32:19;;;;;;;5.00;2.13;;;12.10;90.70;;;;;;790053;180;26798;-77
2024/01/22 09:34:46;;;;;;;6.57;2.90;;;12.20;90.20;;;;;;792363;178;27044;-76
2024/01/22 09:37:13;;;;;;;5.67;3.03;;;12.30;90.30;;;;;;792066;181;27000;-77
2024/01/22 09:39:39;;;;;;;20.60;7.13;;;12.50;89.30;;;;;;790537;181;26444;-77
2024/01/22 09:42:06;;;;;;;20.93;7.50;;;12.60;88.80;;;;;;795598;177;26540;-77
2024/01/22 09:44:33;;;;;;;9.77;3.30;;;12.80;87.60;;;;;;791202;180;26578;-77
2024/01/22 09:46:59;;;;;;;8.03;3.37;;;12.90;86.50;;;;;;791699;180;26439;-77
2024/01/22 09:49:26;;;;;;;11.13;3.97;;;13.00;86.10;;;;;;790064;178;26443;-77
2024/01/22 09:51:52;;;;;;;13.67;4.43;;;13.00;85.50;;;;;;791666;178;27088;-77
2024/01/22 09:54:20;;;;;;;11.23;4.63;;;13.00;85.90;;;;;;790988;180;26448;-78
2024/01/22 09:56:46;;;;;;;14.47;5.37;;;13.00;85.70;;;;;;788413;182;26455;-78
2024/01/22 09:59:17;;;;;;;9.57;2.80;;;13.10;85.50;;;;;;789273;180;27018;-77
2024/01/22 10:01:43;;;;;;;8.27;2.80;;;13.10;85.50;;;;;;790370;181;26782;-77
2024/01/22 10:04:12;;;;;;;15.63;3.57;;;13.10;85.60;;;;;;791688;181;26484;-77
2024/01/22 10:06:38;;;;;;;10.27;3.90;;;13.10;85.30;;;;;;791251;181;26454;-78
2024/01/22 10:09:05;;;;;;;11.87;3.33;;;13.10;85.70;;;;;;792194;179;27017;-77
2024/01/22 10:11:32;;;;;;;10.17;2.70;;;13.00;85.80;;;;;;788050;180;26491;-77
2024/01/22 10:13:59;;;;;;;11.97;3.37;;;13.00;85.80;;;;;;789507;180;26491;-77
2024/01/22 10:16:26;;;;;;;12.93;3.30;;;13.10;85.80;;;;;;790059;180;26489;-78
2024/01/22 10:18:59;;;;;;;9.60;3.10;;;13.00;86.00;;;;;;792488;179;26458;-78
2024/01/22 10:21:25;;;;;;;7.63;3.27;;;13.00;86.40;;;;;;793964;180;26496;-78
2024/01/22 10:23:57;;;;;;;5.57;3.10;;;12.90;87.30;;;;;;792740;181;26450;-78
2024/01/22 10:26:23;;;;;;;10.33;3.40;;;12.80;88.40;;;;;;791736;181;26447;-77
2024/01/22 10:28:50;;;;;;;6.67;2.90;;;12.70;88.50;;;;;;792557;181;26446;-78
2024/01/22 10:31:17;;;;;;;3.00;2.20;;;12.70;88.70;;;;;;792128;178;26499;-77
2024/01/22 10:33:43;;;;;;;4.93;2.90;;;12.60;88.70;;;;;;791589;180;26455;-77
2024/01/22 10:36:16;;;;;;;4.73;2.73;;;12.60;88.60;;;;;;791338;180;26473;-77
2024/01/22 10:38:42;;;;;;;4.80;2.50;;;12.60;88.90;;;;;;790412;180;26453;-79
2024/01/22 10:41:15;;;;;;;12.70;6.70;;;12.60;89.30;;;;;;790367;180;26540;-77
2024/01/22 10:43:42;;;;;;;2.00;1.73;;;12.50;89.50;;;;;;788963;180;26549;-78
2024/01/22 10:46:08;;;;;;;3.60;2.23;;;12.60;89.60;;;;;;789381;180;26536;-78
2024/01/22 10:48:35;;;;;;;5.30;2.00;;;12.60;89.70;;;;;;790278;179;26496;-77
2024/01/22 10:51:02;;;;;;;2.03;1.70;;;12.50;90.10;;;;;;789387;179;27026;-78
2024/01/22 10:53:28;;;;;;;2.60;1.77;;;12.40;90.20;;;;;;796048;179;26435;-79
2024/01/22 10:55:58;;;;;;;7.23;4.43;;;12.40;90.50;;;;;;790586;180;26436;-79
2024/01/22 10:58:23;;;;;;;17.13;7.47;;;12.40;90.80;;;;;;789951;180;26445;-77
2024/01/22 11:00:51;;;;;;;9.00;5.00;;;12.40;90.70;;;;;;790713;180;27037;-77
2024/01/22 11:03:17;;;;;;;29.50;11.80;;;12.30;90.90;;;;;;791654;178;27018;-79
2024/01/22 11:05:44;;;;;;;29.57;11.70;;;12.30;90.90;;;;;;791960;178;27006;-78
2024/01/22 11:08:11;;;;;;;60.37;21.97;;;12.40;90.90;;;;;;791848;178;26487;-77
2024/01/22 11:10:37;;;;;;;54.47;26.57;;;12.40;90.90;;;;;;791463;181;26496;-77
2024/01/22 11:13:04;;;;;;;10.20;5.40;;;12.30;91.00;;;;;;792594;180;26458;-78
2024/01/22 11:15:31;;;;;;;9.40;4.53;;;12.30;91.20;;;;;;794421;179;27007;-77
2024/01/22 11:17:57;;;;;;;4.70;2.63;;;12.30;91.10;;;;;;772193;180;26573;-78
2024/01/22 11:20:24;;;;;;;5.13;2.77;;;12.30;90.90;;;;;;793069;181;26459;-78
2024/01/22 11:23:00;;;;;;;8.60;3.67;;;12.30;91.00;;;;;;793778;178;26451;-78
2024/01/22 11:25:27;;;;;;;4.93;2.93;;;12.40;91.00;;;;;;796315;180;26467;-79
2024/01/22 11:28:00;;;;;;;8.23;4.10;;;12.30;91.10;;;;;;795866;180;26450;-83
2024/01/22 11:30:28;;;;;;;21.97;10.03;;;12.30;91.10;;;;;;792112;178;26471;-78
2024/01/22 11:32:54;;;;;;;23.93;9.53;;;12.30;91.10;;;;;;793238;180;26450;-77
2024/01/22 11:35:32;;;;;;;11.07;6.03;;;12.30;91.20;;;;;;792070;180;26444;-78
2024/01/22 11:37:59;;;;;;;14.63;7.57;;;12.30;91.00;;;;;;790765;179;26466;-77
2024/01/22 11:40:47;;;;;;;8.10;4.43;;;12.30;90.80;;;;;;791624;179;26451;-77
2024/01/22 11:43:14;;;;;;;9.60;4.63;;;12.30;90.90;;;;;;791488;181;26454;-77
2024/01/22 11:45:41;;;;;;;33.10;16.37;;;12.30;90.90;;;;;;789951;180;26444;-77
2024/01/22 11:48:15;;;;;;;24.13;9.57;;;12.30;90.50;;;;;;790339;180;27088;-78
2024/01/22 11:50:41;;;;;;;8.97;4.23;;;12.30;90.50;;;;;;790751;180;26523;-78
2024/01/22 11:53:07;;;;;;;9.20;4.87;;;12.30;90.60;;;;;;790037;180;26447;-77
2024/01/22 11:55:34;;;;;;;9.17;4.37;;;12.30;90.50;;;;;;791411;181;26430;-79
2024/01/22 11:58:00;;;;;;;17.97;10.10;;;12.30;90.30;;;;;;789527;179;26473;-78
2024/01/22 12:00:27;;;;;;;14.53;6.90;;;12.30;90.20;;;;;;792125;181;26522;-78
2024/01/22 12:02:58;;;;;;;22.63;10.73;;;12.30;90.20;;;;;;792099;181;26983;-76
2024/01/22 12:05:20;;;;;;;19.13;7.10;;;12.30;90.40;;;;;;791952;181;26456;-76
2024/01/22 12:07:47;;;;;;;9.10;4.23;;;12.30;90.00;;;;;;791179;178;26997;-78
2024/01/22 12:10:20;;;;;;;12.90;6.07;;;12.30;90.10;;;;;;786412;181;26451;-76
2024/01/22 12:12:50;;;;;;;7.80;3.20;;;12.30;90.70;;;;;;793031;180;26449;-76
2024/01/22 12:15:17;;;;;;;40.97;16.73;;;12.00;93.20;;;;;;793053;179;26439;-76
2024/01/22 12:17:44;;;;;;;27.13;10.87;;;11.70;93.10;;;;;;767844;186;26509;-76
2024/01/22 12:20:11;;;;;;;20.13;7.73;;;11.70;92.70;;;;;;767723;187;27104;-78
2024/01/22 12:22:37;;;;;;;14.03;4.70;;;11.80;92.80;;;;;;767816;184;27117;-78
2024/01/22 12:25:08;;;;;;;10.87;3.03;;;11.80;93.00;;;;;;767713;187;26572;-77
2024/01/22 12:27:35;;;;;;;11.33;3.33;;;11.80;93.60;;;;;;769105;186;26509;-76
2024/01/22 12:30:01;;;;;;;10.97;3.50;;;11.60;96.00;;;;;;782388;181;26542;-77
2024/01/22 12:32:27;;;;;;;13.13;3.90;;;11.40;96.90;;;;;;783051;180;27024;-76
2024/01/22 12:34:56;;;;;;;13.90;4.97;;;11.30;97.00;;;;;;776716;183;27170;-78
2024/01/22 12:37:23;;;;;;;15.60;5.77;;;11.40;96.60;;;;;;767811;187;26491;-77
2024/01/22 12:39:49;;;;;;;25.33;9.53;;;11.40;95.40;;;;;;773740;183;26515;-77
2024/01/22 12:42:19;;;;;;;40.27;17.33;;;11.40;95.50;;;;;;780801;180;26670;-76
2024/01/22 12:44:54;;;;;;;51.67;17.13;;;11.50;95.10;;;;;;779463;179;26525;-79
2024/01/22 12:47:21;;;;;;;65.10;24.53;;;11.60;94.70;;;;;;783160;182;26486;-78